createdAt,value
2022-12-19T00:00:39.225Z,-7.93
2022-12-19T00:03:43.763Z,-7.87
2022-12-19T00:06:46.672Z,-7.82
2022-12-19T00:09:50.131Z,-7.85
2022-12-19T00:12:52.872Z,-7.84
2022-12-19T00:15:55.603Z,-7.81
2022-12-19T00:18:59.963Z,-7.79
2022-12-19T00:22:04.364Z,-7.76
2022-12-19T00:25:10.056Z,-7.75
2022-12-19T00:28:14.113Z,-7.73
2022-12-19T00:31:18.808Z,-7.73
2022-12-19T00:34:21.579Z,-7.71
2022-12-19T00:37:24.278Z,-7.69
2022-12-19T00:40:27.495Z,-7.67
2022-12-19T00:43:30.299Z,-7.67
2022-12-19T00:46:34.271Z,-7.69
2022-12-19T00:49:37.068Z,-7.70
2022-12-19T00:52:41.140Z,-7.67
2022-12-19T00:55:44.084Z,-7.69
2022-12-19T00:58:47.620Z,-7.72
2022-12-19T01:01:50.655Z,-7.72
2022-12-19T01:04:53.684Z,-7.73
2022-12-19T01:07:56.449Z,-7.71
2022-12-19T01:10:59.549Z,-7.72
2022-12-19T01:14:02.265Z,-7.76
2022-12-19T01:17:04.906Z,-7.72
2022-12-19T01:20:08.496Z,-7.74
2022-12-19T01:23:11.533Z,-7.74
2022-12-19T01:26:14.206Z,-7.82
2022-12-19T01:29:17.231Z,-7.77
2022-12-19T01:32:20.878Z,-7.73
2022-12-19T01:35:24.122Z,-7.74
2022-12-19T01:38:27.035Z,-7.71
2022-12-19T01:41:29.830Z,-7.68
2022-12-19T01:44:32.603Z,-7.68
2022-12-19T01:47:53.494Z,-7.55
2022-12-19T01:51:02.718Z,-7.49
2022-12-19T01:54:08.787Z,-7.04
2022-12-19T01:57:14.498Z,-6.57
2022-12-19T02:00:17.478Z,-6.44
2022-12-19T02:03:27.610Z,-5.96
2022-12-19T02:06:31.976Z,-5.78
2022-12-19T02:09:35.180Z,-5.75
2022-12-19T02:12:41.427Z,-5.79
2022-12-19T02:15:57.822Z,-5.83
2022-12-19T02:19:38.246Z,-5.80
2022-12-19T02:23:05.851Z,-5.79
2022-12-19T02:26:20.622Z,-5.64
2022-12-19T02:29:42.459Z,-5.60
2022-12-19T02:32:59.860Z,-5.64
2022-12-19T02:36:08.736Z,-5.57
2022-12-19T02:39:36.406Z,-5.48
2022-12-19T02:42:42.232Z,-5.33
2022-12-19T02:45:45.910Z,-5.28
2022-12-19T02:48:49.037Z,-5.30
2022-12-19T02:51:51.972Z,-5.23
2022-12-19T02:54:58.633Z,-5.05
2022-12-19T02:58:13.382Z,-5.02
2022-12-19T03:01:38.467Z,-4.89
2022-12-19T03:05:23.049Z,-4.74
2022-12-19T03:08:28.802Z,-4.76
2022-12-19T03:11:35.233Z,-4.65
2022-12-19T03:14:38.193Z,-4.72
2022-12-19T03:17:41.277Z,-4.78
2022-12-19T03:20:55.501Z,-4.73
2022-12-19T03:23:59.131Z,-4.75
2022-12-19T03:27:05.486Z,-4.76
2022-12-19T03:30:11.436Z,-4.67
2022-12-19T03:33:14.921Z,-4.73
2022-12-19T03:36:21.735Z,-4.75
2022-12-19T03:39:25.795Z,-4.72
2022-12-19T03:42:47.890Z,-4.69
2022-12-19T03:46:10.508Z,-4.69
2022-12-19T03:49:14.053Z,-4.63
2022-12-19T03:52:16.774Z,-4.60
2022-12-19T03:55:28.025Z,-4.54
2022-12-19T03:58:35.059Z,-4.50
2022-12-19T04:01:39.063Z,-4.48
2022-12-19T04:04:45.028Z,-4.28
2022-12-19T04:07:48.313Z,-4.26
2022-12-19T04:10:55.825Z,-4.17
2022-12-19T04:14:02.148Z,-4.08
2022-12-19T04:17:16.913Z,-4.05
2022-12-19T04:20:21.557Z,-3.94
2022-12-19T04:23:29.461Z,-3.94
2022-12-19T04:26:33.140Z,-3.88
2022-12-19T04:29:37.785Z,-3.83
2022-12-19T04:32:45.021Z,-3.82
2022-12-19T04:35:47.809Z,-3.75
2022-12-19T04:38:50.630Z,-3.72
2022-12-19T04:41:53.433Z,-3.74
2022-12-19T04:44:56.677Z,-3.70
2022-12-19T04:47:59.436Z,-3.75
2022-12-19T04:51:02.139Z,-3.68
2022-12-19T04:54:04.852Z,-3.65
2022-12-19T04:57:07.537Z,-3.65
2022-12-19T05:00:11.431Z,-3.63
2022-12-19T05:03:14.496Z,-3.57
2022-12-19T05:06:17.366Z,-3.52
2022-12-19T05:09:20.173Z,-3.42
2022-12-19T05:12:22.895Z,-3.38
2022-12-19T05:15:25.634Z,-3.38
2022-12-19T05:18:29.722Z,-3.38
2022-12-19T05:21:32.523Z,-3.36
2022-12-19T05:24:35.329Z,-3.36
2022-12-19T05:27:38.065Z,-3.38
2022-12-19T05:30:41.077Z,-3.39
2022-12-19T05:33:43.900Z,-3.41
2022-12-19T05:36:47.064Z,-3.41
2022-12-19T05:39:49.797Z,-3.29
2022-12-19T05:42:52.575Z,-3.25
2022-12-19T05:45:55.269Z,-3.28
2022-12-19T05:48:58.123Z,-3.30
2022-12-19T05:52:01.508Z,-3.33
2022-12-19T05:55:04.950Z,-3.37
2022-12-19T05:58:07.644Z,-3.34
2022-12-19T06:01:22.665Z,-3.34
2022-12-19T06:04:25.752Z,-3.37
2022-12-19T06:07:28.827Z,-3.41
2022-12-19T06:10:31.889Z,-3.44
2022-12-19T06:13:36.161Z,-3.40
2022-12-19T06:16:39.174Z,-3.38
2022-12-19T06:19:43.291Z,-3.36
2022-12-19T06:22:46.119Z,-3.29
2022-12-19T06:25:48.818Z,-3.30
2022-12-19T06:28:52.849Z,-3.25
2022-12-19T06:31:56.204Z,-3.22
2022-12-19T06:35:06.130Z,-3.21
2022-12-19T06:38:09.025Z,-3.17
2022-12-19T06:41:31.044Z,-3.17
2022-12-19T06:44:34.651Z,-3.21
2022-12-19T06:47:37.355Z,-3.24
2022-12-19T06:50:40.225Z,-3.24
2022-12-19T06:53:43.146Z,-3.24
2022-12-19T06:56:45.966Z,-3.26
2022-12-19T06:59:48.887Z,-3.27
2022-12-19T07:02:52.307Z,-3.26
2022-12-19T07:05:55.319Z,-3.26
2022-12-19T07:08:58.058Z,-3.26
2022-12-19T07:12:01.582Z,-3.18
2022-12-19T07:15:05.013Z,-3.15
2022-12-19T07:18:09.366Z,-3.12
2022-12-19T07:21:12.415Z,-3.08
2022-12-19T07:24:15.897Z,-3.01
2022-12-19T07:27:18.608Z,-2.94
2022-12-19T07:30:22.433Z,-2.91
2022-12-19T07:33:25.648Z,-2.86
2022-12-19T07:36:28.252Z,-2.77
2022-12-19T07:39:31.243Z,-2.74
2022-12-19T07:42:34.662Z,-2.74
2022-12-19T07:45:38.802Z,-2.76
2022-12-19T07:48:41.875Z,-2.73
2022-12-19T07:51:44.845Z,-2.71
2022-12-19T07:54:47.528Z,-2.66
2022-12-19T07:57:50.438Z,-2.62
2022-12-19T08:01:01.126Z,-2.54
2022-12-19T08:04:04.097Z,-2.48
2022-12-19T08:07:06.743Z,-2.37
2022-12-19T08:10:11.811Z,-2.26
2022-12-19T08:13:14.543Z,-2.20
2022-12-19T08:16:17.333Z,-2.11
2022-12-19T08:19:23.493Z,-2.10
2022-12-19T08:22:30.704Z,-2.14
2022-12-19T08:25:33.815Z,-2.13
2022-12-19T08:28:37.347Z,-2.12
2022-12-19T08:31:40.917Z,-2.08
2022-12-19T08:34:43.752Z,-2.07
2022-12-19T08:37:46.431Z,-2.07
2022-12-19T08:40:54.285Z,-2.09
2022-12-19T08:43:57.075Z,-2.06
2022-12-19T08:46:59.948Z,-2.01
2022-12-19T08:50:02.606Z,-2.00
2022-12-19T08:53:05.503Z,-1.92
2022-12-19T08:56:14.625Z,-1.91
2022-12-19T08:59:25.002Z,-1.84
2022-12-19T09:02:34.421Z,-1.91
2022-12-19T09:06:00.417Z,-1.88
2022-12-19T09:09:01.509Z,-1.81
2022-12-19T09:12:04.435Z,-1.80
2022-12-19T09:15:07.576Z,-1.84
2022-12-19T09:18:10.395Z,-1.84
2022-12-19T09:21:14.295Z,-1.86
2022-12-19T09:24:17.195Z,-1.87
2022-12-19T09:27:19.861Z,-1.86
2022-12-19T09:30:22.873Z,-1.80
2022-12-19T09:33:26.525Z,-1.78
2022-12-19T09:36:29.383Z,-1.68
2022-12-19T09:39:33.245Z,-1.65
2022-12-19T09:42:40.601Z,-1.62
2022-12-19T09:45:55.163Z,-1.59
2022-12-19T09:48:58.635Z,-1.57
2022-12-19T09:52:08.399Z,-1.46
2022-12-19T09:55:17.282Z,-1.46
2022-12-19T09:58:38.589Z,-1.44
2022-12-19T10:01:54.105Z,-1.42
2022-12-19T10:05:22.413Z,-1.39
2022-12-19T10:08:46.765Z,-1.38
2022-12-19T10:12:49.864Z,-1.37
2022-12-19T10:16:13.552Z,-1.35
2022-12-19T10:19:37.890Z,-1.38
2022-12-19T10:22:52.831Z,-1.38
2022-12-19T10:26:05.038Z,-1.37
2022-12-19T10:29:29.484Z,-1.46
2022-12-19T10:32:55.584Z,-1.44
2022-12-19T10:36:02.720Z,-1.32
2022-12-19T10:39:13.362Z,-1.36
2022-12-19T10:42:23.285Z,-1.35
2022-12-19T10:45:31.243Z,-1.36
2022-12-19T10:48:34.268Z,-1.33
2022-12-19T10:51:36.943Z,-1.24
2022-12-19T10:54:42.858Z,-1.33
2022-12-19T10:57:45.659Z,-1.21
2022-12-19T11:00:54.647Z,-1.26
2022-12-19T11:04:27.016Z,-1.25
2022-12-19T11:07:29.878Z,-1.35
2022-12-19T11:12:35.788Z,-1.34
2022-12-19T11:19:16.101Z,-1.26
2022-12-19T11:26:19.247Z,-1.41
2022-12-19T11:29:29.884Z,-1.42
2022-12-19T11:30:05.878Z,-1.37
2022-12-19T11:30:25.885Z,-1.33
2022-12-19T11:35:16.779Z,-1.30
2022-12-19T11:38:48.814Z,-1.32
2022-12-19T11:42:08.000Z,-1.31
2022-12-19T11:45:37.109Z,-1.04
2022-12-19T11:48:45.325Z,-1.08
2022-12-19T11:52:29.855Z,-0.94
2022-12-19T11:55:51.694Z,-0.82
2022-12-19T11:58:59.279Z,-1.00
2022-12-19T12:02:23.587Z,-1.03
2022-12-19T12:05:39.256Z,-0.94
2022-12-19T12:10:36.904Z,-1.20
2022-12-19T12:22:00.710Z,-1.29
2022-12-19T12:27:05.778Z,-1.37
2022-12-19T12:31:32.345Z,-1.29
2022-12-19T12:32:00.973Z,-1.36
2022-12-19T12:32:04.831Z,-1.33
2022-12-19T12:35:07.335Z,-1.20
2022-12-19T12:35:40.932Z,-1.34
2022-12-19T12:38:23.713Z,-1.44
2022-12-19T12:42:06.396Z,-1.39
2022-12-19T12:45:19.959Z,-1.34
2022-12-19T12:48:36.356Z,-1.25
2022-12-19T12:51:41.328Z,-1.28
2022-12-19T12:54:45.796Z,-1.19
2022-12-19T12:57:49.646Z,-1.17
2022-12-19T13:01:27.062Z,-1.02
2022-12-19T13:04:35.495Z,-0.80
2022-12-19T13:07:58.543Z,-0.57
2022-12-19T13:11:04.463Z,-0.70
2022-12-19T13:14:37.344Z,-0.82
2022-12-19T13:17:43.217Z,-0.85
2022-12-19T13:20:48.678Z,-0.76
2022-12-19T13:23:51.445Z,-0.79
2022-12-19T13:26:54.384Z,-0.75
2022-12-19T13:30:00.277Z,-0.66
2022-12-19T13:33:03.967Z,-0.81
2022-12-19T13:40:02.198Z,-0.80
2022-12-19T13:40:44.577Z,-0.94
2022-12-19T13:43:48.936Z,-0.84
2022-12-19T13:46:52.380Z,-0.88
2022-12-19T13:49:56.464Z,-0.94
2022-12-19T13:53:01.119Z,-1.04
2022-12-19T13:56:20.470Z,-1.11
2022-12-19T13:59:27.188Z,-1.09
2022-12-19T14:02:43.911Z,-1.11
2022-12-19T14:06:17.235Z,-1.12
2022-12-19T14:11:27.289Z,-1.11
2022-12-19T14:14:00.208Z,-1.14
2022-12-19T14:16:44.189Z,-1.14
2022-12-19T14:20:06.767Z,-1.13
2022-12-19T14:23:36.850Z,-1.13
2022-12-19T14:28:20.450Z,-1.11
2022-12-19T14:30:28.283Z,-1.12
2022-12-19T14:34:04.330Z,-1.10
2022-12-19T14:37:39.101Z,-1.10
2022-12-19T14:41:07.546Z,-1.09
2022-12-19T14:52:52.339Z,-1.09
2022-12-19T14:54:06.700Z,-1.08
2022-12-19T14:54:34.716Z,-1.07
2022-12-19T14:58:53.650Z,-1.06
2022-12-19T15:01:32.953Z,-1.07
2022-12-19T15:04:52.515Z,-1.09
2022-12-19T15:08:01.087Z,-1.08
2022-12-19T15:11:48.843Z,-1.08
2022-12-19T15:15:03.238Z,-1.10
2022-12-19T15:18:18.567Z,-1.08
2022-12-19T15:21:21.902Z,-1.08
2022-12-19T15:24:27.970Z,-1.05
2022-12-19T15:27:35.105Z,-1.07
2022-12-19T15:30:54.306Z,-1.09
2022-12-19T15:37:21.140Z,-1.10
2022-12-19T15:40:24.600Z,-1.09
2022-12-19T15:44:01.820Z,-1.11
2022-12-19T15:46:51.962Z,-1.14
2022-12-19T15:49:55.985Z,-1.16
2022-12-19T15:53:01.104Z,-1.16
2022-12-19T15:56:04.000Z,-1.17
2022-12-19T15:59:18.330Z,-1.19
2022-12-19T16:02:27.912Z,-1.19
2022-12-19T16:05:40.360Z,-1.19
2022-12-19T16:08:44.265Z,-1.20
2022-12-19T16:11:50.511Z,-1.19
2022-12-19T16:15:34.402Z,-1.19
2022-12-19T16:18:39.458Z,-1.16
2022-12-19T16:21:42.371Z,-1.13
2022-12-19T16:24:45.344Z,-1.10
2022-12-19T16:27:56.283Z,-1.09
2022-12-19T16:31:00.633Z,-1.09
2022-12-19T16:34:05.536Z,-1.09
2022-12-19T16:37:08.376Z,-1.11
2022-12-19T16:40:21.767Z,-1.10
2022-12-19T16:43:35.576Z,-1.09
2022-12-19T16:46:38.892Z,-1.05
2022-12-19T16:49:42.127Z,-1.06
2022-12-19T16:52:45.258Z,-1.04
2022-12-19T16:55:50.679Z,-1.03
2022-12-19T16:58:54.080Z,-1.05
2022-12-19T17:01:57.436Z,-1.07
2022-12-19T17:05:00.623Z,-1.05
2022-12-19T17:08:07.067Z,-1.04
2022-12-19T17:11:18.422Z,-1.06
2022-12-19T17:14:23.100Z,-1.06
2022-12-19T17:17:27.261Z,-1.03
2022-12-19T17:20:38.505Z,-1.04
2022-12-19T17:23:42.019Z,-1.05
2022-12-19T17:26:45.678Z,-1.05
2022-12-19T17:29:48.625Z,-1.03
2022-12-19T17:32:53.585Z,-1.04
2022-12-19T17:35:56.665Z,-1.04
2022-12-19T17:39:00.146Z,-1.05
2022-12-19T17:42:16.868Z,-1.05
2022-12-19T17:45:19.901Z,-1.04
2022-12-19T17:48:32.336Z,-1.06
2022-12-19T17:51:35.357Z,-1.07
2022-12-19T17:54:38.228Z,-1.07
2022-12-19T17:57:41.176Z,-1.06
2022-12-19T18:00:48.468Z,-1.11
2022-12-19T18:03:52.989Z,-1.12
2022-12-19T18:06:55.856Z,-1.15
2022-12-19T18:09:59.328Z,-1.17
2022-12-19T18:13:02.263Z,-1.15
2022-12-19T18:16:10.121Z,-1.17
2022-12-19T18:19:22.946Z,-1.12
2022-12-19T18:22:26.682Z,-1.11
2022-12-19T18:25:32.151Z,-1.09
2022-12-19T18:28:35.635Z,-1.08
2022-12-19T18:31:43.642Z,-1.07
2022-12-19T18:34:52.941Z,-1.04
2022-12-19T18:37:59.970Z,-1.02
2022-12-19T18:41:03.204Z,-0.97
2022-12-19T18:44:06.392Z,-0.97
2022-12-19T18:47:20.374Z,-0.96
2022-12-19T18:50:26.390Z,-0.96
2022-12-19T18:53:35.738Z,-0.94
2022-12-19T18:56:39.004Z,-0.96
2022-12-19T18:59:42.016Z,-0.92
2022-12-19T19:02:57.873Z,-0.92
2022-12-19T19:06:01.220Z,-0.92
2022-12-19T19:09:24.289Z,-0.91
2022-12-19T19:12:28.973Z,-0.92
2022-12-19T19:15:34.884Z,-0.93
2022-12-19T19:18:41.799Z,-0.91
2022-12-19T19:21:48.580Z,-0.92
2022-12-19T19:25:04.225Z,-0.91
2022-12-19T19:28:52.691Z,-0.90
2022-12-19T19:36:12.176Z,-0.90
2022-12-19T19:39:16.203Z,-0.89
2022-12-19T19:42:19.544Z,-0.91
2022-12-19T19:45:23.885Z,-0.90
2022-12-19T19:48:26.999Z,-0.87
2022-12-19T19:51:29.819Z,-0.88
2022-12-19T19:54:38.619Z,-0.88
2022-12-19T19:57:41.498Z,-0.87
2022-12-19T20:00:47.337Z,-0.89
2022-12-19T20:03:52.897Z,-0.88
2022-12-19T20:06:56.656Z,-0.89
2022-12-19T20:09:59.737Z,-0.88
2022-12-19T20:13:02.653Z,-0.87
2022-12-19T20:16:11.657Z,-0.87
2022-12-19T20:19:17.681Z,-0.87
2022-12-19T20:22:21.649Z,-0.88
2022-12-19T20:25:24.624Z,-0.88
2022-12-19T20:28:28.061Z,-0.89
2022-12-19T20:31:31.588Z,-0.89
2022-12-19T20:34:34.622Z,-0.90
2022-12-19T20:37:37.975Z,-0.90
2022-12-19T20:40:41.624Z,-0.90
2022-12-19T20:43:45.160Z,-0.89
2022-12-19T20:46:48.197Z,-0.89
2022-12-19T20:49:51.085Z,-0.91
2022-12-19T20:52:56.757Z,-0.93
2022-12-19T20:56:01.404Z,-0.92
2022-12-19T20:59:04.742Z,-0.91
2022-12-19T21:02:07.715Z,-0.92
2022-12-19T21:05:11.910Z,-0.91
2022-12-19T21:08:14.971Z,-0.92
2022-12-19T21:11:18.188Z,-0.92
2022-12-19T21:14:21.037Z,-0.93
2022-12-19T21:17:23.973Z,-0.92
2022-12-19T21:20:32.522Z,-0.92
2022-12-19T21:23:38.633Z,-0.92
2022-12-19T21:26:45.432Z,-0.92
2022-12-19T21:29:48.290Z,-0.93
2022-12-19T21:32:51.121Z,-0.93
2022-12-19T21:35:54.322Z,-0.92
2022-12-19T21:38:59.619Z,-0.92
2022-12-19T21:42:02.452Z,-0.90
2022-12-19T21:45:05.771Z,-0.89
2022-12-19T21:48:08.750Z,-0.89
2022-12-19T21:51:13.533Z,-0.87
2022-12-19T21:54:16.388Z,-0.85
2022-12-19T21:57:19.125Z,-0.86
2022-12-19T22:00:22.236Z,-0.88
2022-12-19T22:03:25.160Z,-0.89
2022-12-19T22:06:32.102Z,-0.86
2022-12-19T22:09:34.938Z,-0.88
2022-12-19T22:12:37.816Z,-0.87
2022-12-19T22:15:40.579Z,-0.87
2022-12-19T22:18:43.885Z,-0.93
2022-12-19T22:21:47.548Z,-0.88
2022-12-19T22:24:51.811Z,-0.87
2022-12-19T22:27:56.464Z,-0.89
2022-12-19T22:30:59.821Z,-0.89
2022-12-19T22:34:08.528Z,-0.89
2022-12-19T22:37:11.563Z,-0.90
2022-12-19T22:40:14.603Z,-0.89
2022-12-19T22:43:17.628Z,-0.90
2022-12-19T22:46:28.827Z,-0.90
2022-12-19T22:49:32.008Z,-0.91
2022-12-19T22:52:34.865Z,-0.90
2022-12-19T22:55:38.743Z,-0.91
2022-12-19T22:58:43.425Z,-0.91
2022-12-19T23:01:46.620Z,-0.91
2022-12-19T23:04:49.549Z,-0.91
2022-12-19T23:07:55.469Z,-0.92
2022-12-19T23:11:03.214Z,-0.92
2022-12-19T23:14:08.452Z,-0.97
2022-12-19T23:17:11.310Z,-0.93
2022-12-19T23:20:14.562Z,-0.93
2022-12-19T23:23:17.466Z,-0.94
2022-12-19T23:26:31.647Z,-0.94
2022-12-19T23:29:34.681Z,-0.93
2022-12-19T23:32:37.555Z,-0.94
2022-12-19T23:35:43.911Z,-0.93
2022-12-19T23:38:46.793Z,-0.94
2022-12-19T23:41:49.747Z,-0.92
2022-12-19T23:44:52.904Z,-0.93
2022-12-19T23:47:55.679Z,-0.95
2022-12-19T23:51:03.930Z,-0.94
2022-12-19T23:54:06.930Z,-0.93
2022-12-19T23:57:09.772Z,-0.92
